sensor_id;sensor_type;location;lat;lon;timestamp;P1;durP1;ratioP1;P2;durP2;ratioP2
11042;SDS011;5574;48.786;10.120;2022-12-01T00:01:47;14.93;;;11.17;;
11042;SDS011;5574;48.786;10.120;2022-12-01T00:04:14;15.80;;;10.90;;
11042;SDS011;5574;48.786;10.120;2022-12-01T00:06:40;13.90;;;10.30;;
11042;SDS011;5574;48.786;10.120;2022-12-01T00:09:07;15.20;;;10.13;;
11042;SDS011;5574;48.786;10.120;2022-12-01T00:11:52;13.63;;;10.03;;
11042;SDS011;5574;48.786;10.120;2022-12-01T00:14:20;13.50;;;9.83;;
11042;SDS011;5574;48.786;10.120;2022-12-01T00:16:47;14.17;;;9.80;;
11042;SDS011;5574;48.786;10.120;2022-12-01T00:19:14;12.93;;;9.93;;
11042;SDS011;5574;48.786;10.120;2022-12-01T00:21:41;13.80;;;9.60;;
11042;SDS011;5574;48.786;10.120;2022-12-01T00:24:09;12.57;;;10.13;;
11042;SDS011;5574;48.786;10.120;2022-12-01T00:26:36;15.43;;;9.77;;
11042;SDS011;5574;48.786;10.120;2022-12-01T00:29:03;16.27;;;10.30;;
11042;SDS011;5574;48.786;10.120;2022-12-01T00:31:32;14.20;;;9.87;;
11042;SDS011;5574;48.786;10.120;2022-12-01T00:33:58;12.17;;;9.80;;
11042;SDS011;5574;48.786;10.120;2022-12-01T00:36:25;14.10;;;10.60;;
11042;SDS011;5574;48.786;10.120;2022-12-01T00:38:53;15.27;;;10.93;;
11042;SDS011;5574;48.786;10.120;2022-12-01T00:41:20;13.20;;;10.00;;
11042;SDS011;5574;48.786;10.120;2022-12-01T00:43:48;12.60;;;10.60;;
11042;SDS011;5574;48.786;10.120;2022-12-01T00:46:15;14.60;;;10.50;;
11042;SDS011;5574;48.786;10.120;2022-12-01T00:48:43;14.83;;;10.73;;
11042;SDS011;5574;48.786;10.120;2022-12-01T00:51:10;15.20;;;10.77;;
11042;SDS011;5574;48.786;10.120;2022-12-01T00:53:37;14.27;;;10.87;;
11042;SDS011;5574;48.786;10.120;2022-12-01T00:56:04;14.30;;;11.17;;
11042;SDS011;5574;48.786;10.120;2022-12-01T00:58:30;13.67;;;10.50;;
11042;SDS011;5574;48.786;10.120;2022-12-01T01:00:57;15.13;;;11.50;;
11042;SDS011;5574;48.786;10.120;2022-12-01T01:03:25;15.13;;;11.07;;
11042;SDS011;5574;48.786;10.120;2022-12-01T01:05:54;15.97;;;11.60;;
11042;SDS011;5574;48.786;10.120;2022-12-01T01:08:21;13.83;;;11.17;;
11042;SDS011;5574;48.786;10.120;2022-12-01T01:10:48;14.10;;;11.07;;
11042;SDS011;5574;48.786;10.120;2022-12-01T01:13:15;17.73;;;11.97;;
11042;SDS011;5574;48.786;10.120;2022-12-01T01:15:41;16.13;;;11.47;;
11042;SDS011;5574;48.786;10.120;2022-12-01T01:18:09;15.70;;;11.43;;
11042;SDS011;5574;48.786;10.120;2022-12-01T01:20:36;15.03;;;10.97;;
11042;SDS011;5574;48.786;10.120;2022-12-01T01:23:04;14.97;;;11.17;;
11042;SDS011;5574;48.786;10.120;2022-12-01T01:25:31;16.17;;;11.83;;
11042;SDS011;5574;48.786;10.120;2022-12-01T01:27:58;14.97;;;11.47;;
11042;SDS011;5574;48.786;10.120;2022-12-01T01:30:25;15.60;;;11.03;;
11042;SDS011;5574;48.786;10.120;2022-12-01T01:32:52;16.40;;;10.57;;
11042;SDS011;5574;48.786;10.120;2022-12-01T01:35:18;14.63;;;11.47;;
11042;SDS011;5574;48.786;10.120;2022-12-01T01:37:45;15.20;;;10.97;;
11042;SDS011;5574;48.786;10.120;2022-12-01T01:40:15;14.53;;;11.20;;
11042;SDS011;5574;48.786;10.120;2022-12-01T01:42:42;15.10;;;10.73;;
11042;SDS011;5574;48.786;10.120;2022-12-01T01:45:15;16.03;;;11.03;;
11042;SDS011;5574;48.786;10.120;2022-12-01T01:47:45;16.33;;;11.90;;
11042;SDS011;5574;48.786;10.120;2022-12-01T01:50:14;14.73;;;11.53;;
11042;SDS011;5574;48.786;10.120;2022-12-01T01:52:44;14.47;;;10.67;;
11042;SDS011;5574;48.786;10.120;2022-12-01T01:55:13;14.40;;;10.40;;
11042;SDS011;5574;48.786;10.120;2022-12-01T01:57:42;14.87;;;11.00;;
11042;SDS011;5574;48.786;10.120;2022-12-01T02:00:10;14.43;;;10.90;;
11042;SDS011;5574;48.786;10.120;2022-12-01T02:02:40;15.03;;;11.13;;
11042;SDS011;5574;48.786;10.120;2022-12-01T02:05:08;13.53;;;10.07;;
11042;SDS011;5574;48.786;10.120;2022-12-01T02:07:39;15.73;;;11.50;;
11042;SDS011;5574;48.786;10.120;2022-12-01T02:10:08;15.83;;;11.30;;
11042;SDS011;5574;48.786;10.120;2022-12-01T02:12:48;13.37;;;10.00;;
11042;SDS011;5574;48.786;10.120;2022-12-01T02:15:22;15.63;;;11.57;;
11042;SDS011;5574;48.786;10.120;2022-12-01T02:17:56;13.33;;;10.50;;
11042;SDS011;5574;48.786;10.120;2022-12-01T02:20:35;14.10;;;10.63;;
11042;SDS011;5574;48.786;10.120;2022-12-01T02:26:29;17.60;;;10.87;;
11042;SDS011;5574;48.786;10.120;2022-12-01T02:29:08;12.87;;;9.77;;
11042;SDS011;5574;48.786;10.120;2022-12-01T02:31:50;14.57;;;11.00;;
11042;SDS011;5574;48.786;10.120;2022-12-01T02:34:25;13.67;;;10.47;;
11042;SDS011;5574;48.786;10.120;2022-12-01T02:36:56;16.97;;;10.43;;
11042;SDS011;5574;48.786;10.120;2022-12-01T02:39:29;14.10;;;11.03;;
11042;SDS011;5574;48.786;10.120;2022-12-01T02:42:00;13.73;;;10.23;;
11042;SDS011;5574;48.786;10.120;2022-12-01T02:44:32;13.00;;;9.83;;
11042;SDS011;5574;48.786;10.120;2022-12-01T02:47:04;13.87;;;10.17;;
11042;SDS011;5574;48.786;10.120;2022-12-01T02:49:36;14.80;;;10.50;;
11042;SDS011;5574;48.786;10.120;2022-12-01T02:52:08;12.60;;;9.87;;
11042;SDS011;5574;48.786;10.120;2022-12-01T02:54:36;12.97;;;10.10;;
11042;SDS011;5574;48.786;10.120;2022-12-01T02:57:04;14.50;;;10.93;;
11042;SDS011;5574;48.786;10.120;2022-12-01T02:59:31;13.97;;;10.70;;
11042;SDS011;5574;48.786;10.120;2022-12-01T03:01:59;15.07;;;10.40;;
11042;SDS011;5574;48.786;10.120;2022-12-01T03:04:43;17.30;;;11.30;;
11042;SDS011;5574;48.786;10.120;2022-12-01T03:07:25;17.00;;;11.33;;
11042;SDS011;5574;48.786;10.120;2022-12-01T03:10:12;15.73;;;11.93;;
11042;SDS011;5574;48.786;10.120;2022-12-01T03:12:48;16.00;;;11.47;;
11042;SDS011;5574;48.786;10.120;2022-12-01T03:15:25;15.40;;;11.30;;
11042;SDS011;5574;48.786;10.120;2022-12-01T03:18:02;14.63;;;11.00;;
11042;SDS011;5574;48.786;10.120;2022-12-01T03:20:39;15.50;;;11.27;;
11042;SDS011;5574;48.786;10.120;2022-12-01T03:23:13;14.27;;;10.67;;
11042;SDS011;5574;48.786;10.120;2022-12-01T03:25:46;13.97;;;10.87;;
11042;SDS011;5574;48.786;10.120;2022-12-01T03:28:16;14.47;;;10.13;;
11042;SDS011;5574;48.786;10.120;2022-12-01T03:30:46;14.27;;;10.57;;
11042;SDS011;5574;48.786;10.120;2022-12-01T03:33:19;15.10;;;11.13;;
11042;SDS011;5574;48.786;10.120;2022-12-01T03:35:50;17.30;;;11.30;;
11042;SDS011;5574;48.786;10.120;2022-12-01T03:38:22;15.60;;;11.73;;
11042;SDS011;5574;48.786;10.120;2022-12-01T03:40:50;16.83;;;11.77;;
11042;SDS011;5574;48.786;10.120;2022-12-01T03:43:22;15.43;;;11.63;;
11042;SDS011;5574;48.786;10.120;2022-12-01T03:45:54;16.30;;;12.00;;
11042;SDS011;5574;48.786;10.120;2022-12-01T03:48:26;16.43;;;11.97;;
11042;SDS011;5574;48.786;10.120;2022-12-01T03:50:55;18.00;;;11.87;;
11042;SDS011;5574;48.786;10.120;2022-12-01T03:53:31;14.47;;;10.97;;
11042;SDS011;5574;48.786;10.120;2022-12-01T03:56:04;15.93;;;11.30;;
11042;SDS011;5574;48.786;10.120;2022-12-01T03:58:33;15.73;;;11.23;;
11042;SDS011;5574;48.786;10.120;2022-12-01T04:01:02;17.20;;;12.33;;
11042;SDS011;5574;48.786;10.120;2022-12-01T04:03:31;16.50;;;12.47;;
11042;SDS011;5574;48.786;10.120;2022-12-01T04:05:59;16.43;;;11.67;;
11042;SDS011;5574;48.786;10.120;2022-12-01T04:08:26;17.37;;;12.47;;
11042;SDS011;5574;48.786;10.120;2022-12-01T04:10:54;17.00;;;11.73;;
11042;SDS011;5574;48.786;10.120;2022-12-01T04:13:21;16.90;;;12.43;;
11042;SDS011;5574;48.786;10.120;2022-12-01T04:15:47;17.80;;;12.07;;
11042;SDS011;5574;48.786;10.120;2022-12-01T04:18:15;15.90;;;11.93;;
11042;SDS011;5574;48.786;10.120;2022-12-01T04:20:45;16.37;;;11.50;;
11042;SDS011;5574;48.786;10.120;2022-12-01T04:23:12;17.10;;;12.70;;
11042;SDS011;5574;48.786;10.120;2022-12-01T04:26:00;16.90;;;10.83;;
11042;SDS011;5574;48.786;10.120;2022-12-01T04:28:27;17.47;;;12.97;;
11042;SDS011;5574;48.786;10.120;2022-12-01T04:30:54;16.37;;;12.70;;
11042;SDS011;5574;48.786;10.120;2022-12-01T04:33:21;17.37;;;12.30;;
11042;SDS011;5574;48.786;10.120;2022-12-01T04:35:56;17.70;;;12.60;;
11042;SDS011;5574;48.786;10.120;2022-12-01T04:38:23;17.03;;;11.93;;
11042;SDS011;5574;48.786;10.120;2022-12-01T04:40:50;17.53;;;12.13;;
11042;SDS011;5574;48.786;10.120;2022-12-01T04:43:17;18.40;;;12.73;;
11042;SDS011;5574;48.786;10.120;2022-12-01T04:45:44;16.70;;;12.83;;
11042;SDS011;5574;48.786;10.120;2022-12-01T04:48:10;17.07;;;12.47;;
11042;SDS011;5574;48.786;10.120;2022-12-01T04:50:37;16.10;;;12.00;;
11042;SDS011;5574;48.786;10.120;2022-12-01T04:53:06;16.77;;;12.10;;
11042;SDS011;5574;48.786;10.120;2022-12-01T04:55:35;16.60;;;12.23;;
11042;SDS011;5574;48.786;10.120;2022-12-01T04:58:03;16.73;;;11.93;;
11042;SDS011;5574;48.786;10.120;2022-12-01T05:00:30;18.00;;;12.90;;
11042;SDS011;5574;48.786;10.120;2022-12-01T05:02:57;18.97;;;12.80;;
11042;SDS011;5574;48.786;10.120;2022-12-01T05:05:25;18.73;;;12.53;;
11042;SDS011;5574;48.786;10.120;2022-12-01T05:07:52;16.63;;;11.97;;
11042;SDS011;5574;48.786;10.120;2022-12-01T05:10:20;16.07;;;11.70;;
11042;SDS011;5574;48.786;10.120;2022-12-01T05:12:47;18.07;;;13.23;;
11042;SDS011;5574;48.786;10.120;2022-12-01T05:15:14;17.23;;;12.17;;
11042;SDS011;5574;48.786;10.120;2022-12-01T05:17:41;15.57;;;12.33;;
11042;SDS011;5574;48.786;10.120;2022-12-01T05:20:08;16.80;;;12.47;;
11042;SDS011;5574;48.786;10.120;2022-12-01T05:23:00;17.50;;;12.27;;
11042;SDS011;5574;48.786;10.120;2022-12-01T05:25:28;22.20;;;13.07;;
11042;SDS011;5574;48.786;10.120;2022-12-01T05:27:55;15.40;;;11.67;;
11042;SDS011;5574;48.786;10.120;2022-12-01T05:30:22;17.93;;;12.97;;
11042;SDS011;5574;48.786;10.120;2022-12-01T05:32:49;20.87;;;11.43;;
11042;SDS011;5574;48.786;10.120;2022-12-01T05:35:15;18.33;;;12.40;;
11042;SDS011;5574;48.786;10.120;2022-12-01T05:37:42;16.97;;;12.00;;
11042;SDS011;5574;48.786;10.120;2022-12-01T05:40:09;16.73;;;11.50;;
11042;SDS011;5574;48.786;10.120;2022-12-01T05:42:38;19.20;;;12.60;;
11042;SDS011;5574;48.786;10.120;2022-12-01T05:45:05;16.63;;;12.27;;
11042;SDS011;5574;48.786;10.120;2022-12-01T05:47:32;18.30;;;13.00;;
11042;SDS011;5574;48.786;10.120;2022-12-01T05:49:59;23.03;;;12.20;;
11042;SDS011;5574;48.786;10.120;2022-12-01T05:52:26;17.77;;;12.77;;
11042;SDS011;5574;48.786;10.120;2022-12-01T05:54:52;17.27;;;11.43;;
11042;SDS011;5574;48.786;10.120;2022-12-01T05:57:19;16.53;;;12.10;;
11042;SDS011;5574;48.786;10.120;2022-12-01T05:59:47;17.40;;;12.50;;
11042;SDS011;5574;48.786;10.120;2022-12-01T06:02:14;14.90;;;11.63;;
11042;SDS011;5574;48.786;10.120;2022-12-01T06:04:41;16.40;;;12.20;;
11042;SDS011;5574;48.786;10.120;2022-12-01T06:07:08;20.63;;;12.50;;
11042;SDS011;5574;48.786;10.120;2022-12-01T06:09:35;16.93;;;12.47;;
11042;SDS011;5574;48.786;10.120;2022-12-01T06:12:01;18.10;;;12.57;;
11042;SDS011;5574;48.786;10.120;2022-12-01T06:14:28;17.67;;;12.37;;
11042;SDS011;5574;48.786;10.120;2022-12-01T06:16:56;19.13;;;12.37;;
11042;SDS011;5574;48.786;10.120;2022-12-01T06:19:23;20.27;;;11.77;;
11042;SDS011;5574;48.786;10.120;2022-12-01T06:21:50;16.87;;;12.50;;
11042;SDS011;5574;48.786;10.120;2022-12-01T06:24:17;19.90;;;11.90;;
11042;SDS011;5574;48.786;10.120;2022-12-01T06:26:43;17.97;;;12.10;;
11042;SDS011;5574;48.786;10.120;2022-12-01T06:29:10;15.67;;;11.43;;
11042;SDS011;5574;48.786;10.120;2022-12-01T06:31:37;16.80;;;12.17;;
11042;SDS011;5574;48.786;10.120;2022-12-01T06:34:05;15.10;;;11.73;;
11042;SDS011;5574;48.786;10.120;2022-12-01T06:36:31;17.57;;;11.87;;
11042;SDS011;5574;48.786;10.120;2022-12-01T06:38:58;17.07;;;12.23;;
11042;SDS011;5574;48.786;10.120;2022-12-01T06:41:25;17.60;;;11.73;;
11042;SDS011;5574;48.786;10.120;2022-12-01T06:43:52;17.93;;;12.93;;
11042;SDS011;5574;48.786;10.120;2022-12-01T06:46:18;19.13;;;13.53;;
11042;SDS011;5574;48.786;10.120;2022-12-01T06:48:46;17.53;;;12.57;;
11042;SDS011;5574;48.786;10.120;2022-12-01T06:51:15;17.17;;;12.07;;
11042;SDS011;5574;48.786;10.120;2022-12-01T06:53:41;17.03;;;12.20;;
11042;SDS011;5574;48.786;10.120;2022-12-01T06:56:08;18.43;;;12.80;;
11042;SDS011;5574;48.786;10.120;2022-12-01T06:58:35;17.40;;;11.53;;
11042;SDS011;5574;48.786;10.120;2022-12-01T07:01:06;17.20;;;12.33;;
11042;SDS011;5574;48.786;10.120;2022-12-01T07:03:34;17.03;;;12.40;;
11042;SDS011;5574;48.786;10.120;2022-12-01T07:06:01;25.90;;;12.00;;
11042;SDS011;5574;48.786;10.120;2022-12-01T07:08:30;17.43;;;13.00;;
11042;SDS011;5574;48.786;10.120;2022-12-01T07:10:58;20.13;;;12.07;;
11042;SDS011;5574;48.786;10.120;2022-12-01T07:13:25;17.83;;;12.13;;
11042;SDS011;5574;48.786;10.120;2022-12-01T07:15:52;16.43;;;12.03;;
11042;SDS011;5574;48.786;10.120;2022-12-01T07:18:19;15.73;;;11.33;;
11042;SDS011;5574;48.786;10.120;2022-12-01T07:20:46;18.27;;;12.13;;
11042;SDS011;5574;48.786;10.120;2022-12-01T07:23:13;19.60;;;12.93;;
11042;SDS011;5574;48.786;10.120;2022-12-01T07:25:41;17.13;;;12.30;;
11042;SDS011;5574;48.786;10.120;2022-12-01T07:28:08;17.27;;;12.57;;
11042;SDS011;5574;48.786;10.120;2022-12-01T07:30:35;16.70;;;11.93;;
11042;SDS011;5574;48.786;10.120;2022-12-01T07:33:02;16.07;;;12.00;;
11042;SDS011;5574;48.786;10.120;2022-12-01T07:35:28;19.57;;;12.17;;
11042;SDS011;5574;48.786;10.120;2022-12-01T07:37:55;15.07;;;11.33;;
11042;SDS011;5574;48.786;10.120;2022-12-01T07:40:22;16.97;;;12.53;;
11042;SDS011;5574;48.786;10.120;2022-12-01T07:42:50;19.13;;;11.80;;
11042;SDS011;5574;48.786;10.120;2022-12-01T07:45:17;18.27;;;12.90;;
11042;SDS011;5574;48.786;10.120;2022-12-01T07:47:43;17.37;;;12.67;;
11042;SDS011;5574;48.786;10.120;2022-12-01T07:50:10;18.00;;;12.80;;
11042;SDS011;5574;48.786;10.120;2022-12-01T07:52:37;20.07;;;12.90;;
11042;SDS011;5574;48.786;10.120;2022-12-01T07:55:04;17.10;;;12.60;;
11042;SDS011;5574;48.786;10.120;2022-12-01T07:57:31;18.73;;;13.50;;
11042;SDS011;5574;48.786;10.120;2022-12-01T07:59:59;17.77;;;12.57;;
11042;SDS011;5574;48.786;10.120;2022-12-01T08:02:26;18.17;;;13.03;;
11042;SDS011;5574;48.786;10.120;2022-12-01T08:04:53;17.03;;;12.20;;
11042;SDS011;5574;48.786;10.120;2022-12-01T08:07:19;20.77;;;13.53;;
11042;SDS011;5574;48.786;10.120;2022-12-01T08:09:46;17.23;;;12.07;;
11042;SDS011;5574;48.786;10.120;2022-12-01T08:12:13;17.47;;;12.80;;
11042;SDS011;5574;48.786;10.120;2022-12-01T08:14:39;25.77;;;12.70;;
11042;SDS011;5574;48.786;10.120;2022-12-01T08:17:08;17.27;;;13.00;;
11042;SDS011;5574;48.786;10.120;2022-12-01T08:19:35;17.13;;;13.20;;
11042;SDS011;5574;48.786;10.120;2022-12-01T08:22:01;17.47;;;12.60;;
11042;SDS011;5574;48.786;10.120;2022-12-01T08:24:28;18.77;;;13.20;;
11042;SDS011;5574;48.786;10.120;2022-12-01T08:26:55;19.60;;;12.23;;
11042;SDS011;5574;48.786;10.120;2022-12-01T08:29:21;17.73;;;11.93;;
11042;SDS011;5574;48.786;10.120;2022-12-01T08:31:48;17.33;;;12.13;;
11042;SDS011;5574;48.786;10.120;2022-12-01T08:34:16;17.53;;;12.53;;
11042;SDS011;5574;48.786;10.120;2022-12-01T08:36:43;18.03;;;12.87;;
11042;SDS011;5574;48.786;10.120;2022-12-01T08:39:10;24.03;;;17.40;;
11042;SDS011;5574;48.786;10.120;2022-12-01T08:41:36;17.77;;;13.13;;
11042;SDS011;5574;48.786;10.120;2022-12-01T08:44:03;18.03;;;12.80;;
11042;SDS011;5574;48.786;10.120;2022-12-01T08:46:31;16.57;;;12.37;;
11042;SDS011;5574;48.786;10.120;2022-12-01T08:48:58;16.87;;;12.53;;
11042;SDS011;5574;48.786;10.120;2022-12-01T08:51:26;16.07;;;12.40;;
11042;SDS011;5574;48.786;10.120;2022-12-01T08:53:54;16.40;;;11.60;;
11042;SDS011;5574;48.786;10.120;2022-12-01T08:56:22;17.27;;;11.93;;
11042;SDS011;5574;48.786;10.120;2022-12-01T08:58:50;16.97;;;12.33;;
11042;SDS011;5574;48.786;10.120;2022-12-01T09:01:17;30.37;;;13.83;;
11042;SDS011;5574;48.786;10.120;2022-12-01T09:03:44;16.97;;;12.13;;
11042;SDS011;5574;48.786;10.120;2022-12-01T09:06:11;15.67;;;11.93;;
11042;SDS011;5574;48.786;10.120;2022-12-01T09:08:41;16.73;;;11.97;;
11042;SDS011;5574;48.786;10.120;2022-12-01T09:11:09;18.27;;;12.67;;
11042;SDS011;5574;48.786;10.120;2022-12-01T09:13:37;18.93;;;12.13;;
11042;SDS011;5574;48.786;10.120;2022-12-01T09:16:05;17.53;;;11.83;;
11042;SDS011;5574;48.786;10.120;2022-12-01T09:18:33;19.83;;;12.80;;
11042;SDS011;5574;48.786;10.120;2022-12-01T09:21:00;20.10;;;13.30;;
11042;SDS011;5574;48.786;10.120;2022-12-01T09:23:35;16.37;;;12.13;;
11042;SDS011;5574;48.786;10.120;2022-12-01T09:26:03;19.77;;;13.43;;
11042;SDS011;5574;48.786;10.120;2022-12-01T09:28:31;19.30;;;12.63;;
11042;SDS011;5574;48.786;10.120;2022-12-01T09:31:02;19.43;;;12.77;;
11042;SDS011;5574;48.786;10.120;2022-12-01T09:33:30;16.50;;;11.70;;
11042;SDS011;5574;48.786;10.120;2022-12-01T09:35:57;17.53;;;12.63;;
11042;SDS011;5574;48.786;10.120;2022-12-01T09:38:24;18.10;;;13.17;;
11042;SDS011;5574;48.786;10.120;2022-12-01T09:40:51;20.67;;;13.70;;
11042;SDS011;5574;48.786;10.120;2022-12-01T09:43:19;17.57;;;12.90;;
11042;SDS011;5574;48.786;10.120;2022-12-01T09:45:50;16.73;;;12.53;;
11042;SDS011;5574;48.786;10.120;2022-12-01T09:48:23;18.53;;;12.53;;
11042;SDS011;5574;48.786;10.120;2022-12-01T09:50:52;19.20;;;12.80;;
11042;SDS011;5574;48.786;10.120;2022-12-01T09:53:20;17.73;;;12.60;;
11042;SDS011;5574;48.786;10.120;2022-12-01T09:55:49;18.60;;;13.33;;
11042;SDS011;5574;48.786;10.120;2022-12-01T09:58:16;22.07;;;13.37;;
11042;SDS011;5574;48.786;10.120;2022-12-01T10:00:47;18.67;;;13.50;;
11042;SDS011;5574;48.786;10.120;2022-12-01T10:03:18;16.00;;;12.73;;
11042;SDS011;5574;48.786;10.120;2022-12-01T10:05:54;18.53;;;13.20;;
11042;SDS011;5574;48.786;10.120;2022-12-01T10:08:23;16.30;;;12.13;;
11042;SDS011;5574;48.786;10.120;2022-12-01T10:10:55;16.20;;;12.83;;
11042;SDS011;5574;48.786;10.120;2022-12-01T10:13:26;21.40;;;13.70;;
11042;SDS011;5574;48.786;10.120;2022-12-01T10:15:56;16.67;;;11.00;;
11042;SDS011;5574;48.786;10.120;2022-12-01T10:18:33;17.20;;;12.77;;
11042;SDS011;5574;48.786;10.120;2022-12-01T10:21:08;21.70;;;12.87;;
11042;SDS011;5574;48.786;10.120;2022-12-01T10:23:43;17.00;;;11.60;;
11042;SDS011;5574;48.786;10.120;2022-12-01T10:26:20;22.40;;;12.53;;
11042;SDS011;5574;48.786;10.120;2022-12-01T10:29:00;16.43;;;11.30;;
11042;SDS011;5574;48.786;10.120;2022-12-01T10:31:40;17.83;;;12.60;;
11042;SDS011;5574;48.786;10.120;2022-12-01T10:34:15;17.40;;;12.73;;
11042;SDS011;5574;48.786;10.120;2022-12-01T10:36:45;16.73;;;12.27;;
11042;SDS011;5574;48.786;10.120;2022-12-01T10:39:14;15.93;;;11.93;;
11042;SDS011;5574;48.786;10.120;2022-12-01T10:41:44;18.10;;;11.33;;
11042;SDS011;5574;48.786;10.120;2022-12-01T10:44:12;17.07;;;12.67;;
11042;SDS011;5574;48.786;10.120;2022-12-01T10:46:44;18.83;;;12.53;;
11042;SDS011;5574;48.786;10.120;2022-12-01T10:49:13;19.70;;;12.47;;
11042;SDS011;5574;48.786;10.120;2022-12-01T10:51:46;19.60;;;11.87;;
11042;SDS011;5574;48.786;10.120;2022-12-01T10:54:15;16.47;;;12.10;;
11042;SDS011;5574;48.786;10.120;2022-12-01T10:56:42;16.13;;;11.83;;
11042;SDS011;5574;48.786;10.120;2022-12-01T10:59:22;17.30;;;11.40;;
11042;SDS011;5574;48.786;10.120;2022-12-01T11:01:53;17.23;;;11.80;;
11042;SDS011;5574;48.786;10.120;2022-12-01T11:04:24;20.17;;;11.43;;
11042;SDS011;5574;48.786;10.120;2022-12-01T11:06:56;16.20;;;11.53;;
11042;SDS011;5574;48.786;10.120;2022-12-01T11:09:24;15.50;;;11.13;;
11042;SDS011;5574;48.786;10.120;2022-12-01T11:11:53;20.77;;;11.70;;
11042;SDS011;5574;48.786;10.120;2022-12-01T11:14:22;15.97;;;11.17;;
11042;SDS011;5574;48.786;10.120;2022-12-01T11:17:13;14.60;;;11.70;;
11042;SDS011;5574;48.786;10.120;2022-12-01T11:19:41;16.47;;;11.47;;
11042;SDS011;5574;48.786;10.120;2022-12-01T11:22:16;14.57;;;10.40;;
11042;SDS011;5574;48.786;10.120;2022-12-01T11:24:54;15.80;;;11.00;;
11042;SDS011;5574;48.786;10.120;2022-12-01T11:27:23;17.33;;;11.43;;
11042;SDS011;5574;48.786;10.120;2022-12-01T11:29:51;15.03;;;11.97;;
11042;SDS011;5574;48.786;10.120;2022-12-01T11:32:23;14.93;;;10.77;;
11042;SDS011;5574;48.786;10.120;2022-12-01T11:34:53;14.17;;;11.20;;
11042;SDS011;5574;48.786;10.120;2022-12-01T11:37:25;14.87;;;11.53;;
11042;SDS011;5574;48.786;10.120;2022-12-01T11:40:02;13.83;;;11.33;;
11042;SDS011;5574;48.786;10.120;2022-12-01T11:42:38;14.77;;;10.97;;
11042;SDS011;5574;48.786;10.120;2022-12-01T11:45:07;16.03;;;11.60;;
11042;SDS011;5574;48.786;10.120;2022-12-01T11:47:58;16.50;;;11.70;;
11042;SDS011;5574;48.786;10.120;2022-12-01T11:50:27;13.83;;;11.87;;
11042;SDS011;5574;48.786;10.120;2022-12-01T11:52:55;15.47;;;11.20;;
11042;SDS011;5574;48.786;10.120;2022-12-01T11:55:23;17.47;;;12.30;;
11042;SDS011;5574;48.786;10.120;2022-12-01T11:57:52;14.67;;;11.37;;
11042;SDS011;5574;48.786;10.120;2022-12-01T12:00:22;21.30;;;12.73;;
11042;SDS011;5574;48.786;10.120;2022-12-01T12:02:54;19.73;;;12.47;;
11042;SDS011;5574;48.786;10.120;2022-12-01T12:05:38;15.23;;;10.93;;
11042;SDS011;5574;48.786;10.120;2022-12-01T12:08:20;17.77;;;11.80;;
11042;SDS011;5574;48.786;10.120;2022-12-01T12:10:58;14.77;;;11.53;;
11042;SDS011;5574;48.786;10.120;2022-12-01T12:13:39;16.10;;;11.70;;
11042;SDS011;5574;48.786;10.120;2022-12-01T12:16:21;18.13;;;10.80;;
11042;SDS011;5574;48.786;10.120;2022-12-01T12:18:59;12.93;;;10.67;;
11042;SDS011;5574;48.786;10.120;2022-12-01T12:21:37;14.90;;;11.23;;
11042;SDS011;5574;48.786;10.120;2022-12-01T12:24:20;12.70;;;10.07;;
11042;SDS011;5574;48.786;10.120;2022-12-01T12:26:58;13.13;;;10.87;;
11042;SDS011;5574;48.786;10.120;2022-12-01T12:29:41;14.33;;;11.20;;
11042;SDS011;5574;48.786;10.120;2022-12-01T12:32:33;15.80;;;10.90;;
11042;SDS011;5574;48.786;10.120;2022-12-01T12:35:20;14.80;;;11.03;;
11042;SDS011;5574;48.786;10.120;2022-12-01T12:37:55;14.37;;;10.93;;
11042;SDS011;5574;48.786;10.120;2022-12-01T12:40:31;14.13;;;10.70;;
11042;SDS011;5574;48.786;10.120;2022-12-01T12:43:09;14.53;;;10.67;;
11042;SDS011;5574;48.786;10.120;2022-12-01T12:45:57;15.43;;;10.43;;
11042;SDS011;5574;48.786;10.120;2022-12-01T12:48:33;14.90;;;11.50;;
11042;SDS011;5574;48.786;10.120;2022-12-01T12:51:16;18.07;;;11.93;;
11042;SDS011;5574;48.786;10.120;2022-12-01T12:53:48;15.63;;;11.67;;
11042;SDS011;5574;48.786;10.120;2022-12-01T12:56:20;14.17;;;10.93;;
11042;SDS011;5574;48.786;10.120;2022-12-01T12:58:52;13.87;;;10.73;;
11042;SDS011;5574;48.786;10.120;2022-12-01T13:01:23;15.37;;;10.80;;
11042;SDS011;5574;48.786;10.120;2022-12-01T13:03:54;14.60;;;10.87;;
11042;SDS011;5574;48.786;10.120;2022-12-01T13:06:27;14.53;;;10.50;;
11042;SDS011;5574;48.786;10.120;2022-12-01T13:08:59;19.57;;;10.50;;
11042;SDS011;5574;48.786;10.120;2022-12-01T13:11:29;13.47;;;10.10;;
11042;SDS011;5574;48.786;10.120;2022-12-01T13:14:02;15.47;;;11.03;;
11042;SDS011;5574;48.786;10.120;2022-12-01T13:16:36;16.33;;;10.33;;
11042;SDS011;5574;48.786;10.120;2022-12-01T13:19:09;15.97;;;11.00;;
11042;SDS011;5574;48.786;10.120;2022-12-01T13:21:41;18.00;;;11.23;;
11042;SDS011;5574;48.786;10.120;2022-12-01T13:24:10;14.17;;;10.13;;
11042;SDS011;5574;48.786;10.120;2022-12-01T13:26:41;15.27;;;10.70;;
11042;SDS011;5574;48.786;10.120;2022-12-01T13:29:12;13.20;;;10.67;;
11042;SDS011;5574;48.786;10.120;2022-12-01T13:31:42;13.20;;;10.30;;
11042;SDS011;5574;48.786;10.120;2022-12-01T13:34:17;13.60;;;11.13;;
11042;SDS011;5574;48.786;10.120;2022-12-01T13:36:48;15.03;;;10.83;;
11042;SDS011;5574;48.786;10.120;2022-12-01T13:39:17;12.53;;;9.97;;
11042;SDS011;5574;48.786;10.120;2022-12-01T13:41:54;19.00;;;11.10;;
11042;SDS011;5574;48.786;10.120;2022-12-01T13:44:27;12.03;;;9.57;;
11042;SDS011;5574;48.786;10.120;2022-12-01T13:47:00;18.17;;;10.67;;
11042;SDS011;5574;48.786;10.120;2022-12-01T13:49:34;14.50;;;10.43;;
11042;SDS011;5574;48.786;10.120;2022-12-01T13:55:19;14.83;;;10.47;;
11042;SDS011;5574;48.786;10.120;2022-12-01T14:04:22;13.37;;;10.37;;
11042;SDS011;5574;48.786;10.120;2022-12-01T14:10:07;14.33;;;10.77;;
11042;SDS011;5574;48.786;10.120;2022-12-01T14:12:50;20.17;;;11.20;;
11042;SDS011;5574;48.786;10.120;2022-12-01T14:15:21;14.37;;;10.70;;
11042;SDS011;5574;48.786;10.120;2022-12-01T14:25:41;17.43;;;11.03;;
11042;SDS011;5574;48.786;10.120;2022-12-01T14:34:58;16.23;;;11.63;;
11042;SDS011;5574;48.786;10.120;2022-12-01T14:55:38;13.77;;;11.10;;
11042;SDS011;5574;48.786;10.120;2022-12-01T14:58:10;15.10;;;11.03;;
11042;SDS011;5574;48.786;10.120;2022-12-01T15:00:47;13.80;;;11.07;;
11042;SDS011;5574;48.786;10.120;2022-12-01T15:03:31;16.03;;;10.43;;
11042;SDS011;5574;48.786;10.120;2022-12-01T15:06:01;16.70;;;12.07;;
11042;SDS011;5574;48.786;10.120;2022-12-01T15:08:28;17.83;;;11.20;;
11042;SDS011;5574;48.786;10.120;2022-12-01T15:10:59;18.63;;;13.17;;
11042;SDS011;5574;48.786;10.120;2022-12-01T15:13:27;19.87;;;13.10;;
11042;SDS011;5574;48.786;10.120;2022-12-01T15:15:56;15.33;;;11.07;;
11042;SDS011;5574;48.786;10.120;2022-12-01T15:18:27;15.40;;;11.07;;
11042;SDS011;5574;48.786;10.120;2022-12-01T15:20:56;20.00;;;11.60;;
11042;SDS011;5574;48.786;10.120;2022-12-01T15:23:26;17.80;;;12.10;;
11042;SDS011;5574;48.786;10.120;2022-12-01T15:33:42;17.33;;;12.43;;
11042;SDS011;5574;48.786;10.120;2022-12-01T15:36:12;17.03;;;11.70;;